Time;durP1;ratioP1;P1;durP2;ratioP2;P2;SDS_P1;SDS_P2;PMS_P1;PMS_P2;Temp;Humidity;BMP_temperature;BMP_pressure;BME280_temperature;BME280_humidity;BME280_pressure;Samples;Min_cycle;Max_cycle;Signal;HPM_P1;HPM_P2
2022/09/09 00:02:05;;;;;;;10.80;9.75;;;;;;;;;;5033810;28;20116;-82
2022/09/09 00:04:32;;;;;;;10.48;9.43;;;;;;;;;;5033756;28;20024;-80
2022/09/09 00:07:04;;;;;;;10.45;9.15;;;;;;;;;;5033096;28;20047;-81
2022/09/09 00:09:37;;;;;;;10.23;9.20;;;;;;;;;;5033608;28;20029;-80
2022/09/09 00:12:09;;;;;;;10.07;9.20;;;;;;;;;;5033640;28;20018;-80
2022/09/09 00:14:35;;;;;;;10.52;9.38;;;;;;;;;;5033715;28;20029;-82
2022/09/09 00:17:04;;;;;;;9.70;8.73;;;;;;;;;;5033354;28;20172;-81
2022/09/09 00:19:30;;;;;;;9.25;8.35;;;;;;;;;;5033559;28;20476;-82
2022/09/09 00:22:02;;;;;;;9.95;9.05;;;;;;;;;;5033246;28;20468;-82
2022/09/09 00:24:47;;;;;;;12.20;9.68;;;;;;;;;;5033512;28;20048;-80
2022/09/09 00:27:33;;;;;;;10.50;9.50;;;;;;;;;;5033475;28;20473;-81
2022/09/09 00:30:14;;;;;;;11.13;10.02;;;;;;;;;;5032913;28;20041;-82
2022/09/09 00:32:40;;;;;;;10.50;9.35;;;;;;;;;;5033362;28;20476;-82
2022/09/09 00:35:06;;;;;;;11.05;9.95;;;;;;;;;;5033044;28;20049;-82
2022/09/09 00:37:35;;;;;;;10.52;9.52;;;;;;;;;;5033114;28;20440;-80
2022/09/09 00:40:02;;;;;;;10.48;9.48;;;;;;;;;;5033211;28;20018;-81
2022/09/09 00:42:55;;;;;;;9.93;8.93;;;;;;;;;;5032919;28;20025;-81
2022/09/09 00:45:34;;;;;;;11.38;10.30;;;;;;;;;;5028679;28;20034;-82
2022/09/09 00:48:01;;;;;;;9.90;8.93;;;;;;;;;;5032801;28;20468;-80
2022/09/09 00:50:30;;;;;;;11.38;10.38;;;;;;;;;;5033004;28;20029;-81
2022/09/09 00:52:57;;;;;;;10.48;9.45;;;;;;;;;;5032809;28;20025;-81
2022/09/09 00:55:43;;;;;;;10.88;9.88;;;;;;;;;;5032850;28;20056;-82
2022/09/09 00:58:10;;;;;;;10.98;9.98;;;;;;;;;;5032836;28;20087;-80
2022/09/09 01:00:42;;;;;;;11.02;9.88;;;;;;;;;;5032752;28;20025;-82
2022/09/09 01:03:21;;;;;;;10.98;9.88;;;;;;;;;;5032877;28;20109;-82
2022/09/09 01:05:59;;;;;;;11.63;10.43;;;;;;;;;;5032748;28;20101;-81
2022/09/09 01:08:28;;;;;;;10.68;9.57;;;;;;;;;;5032814;28;20031;-79
2022/09/09 01:10:54;;;;;;;10.77;9.80;;;;;;;;;;5032793;28;20091;-81
2022/09/09 01:13:30;;;;;;;10.07;9.18;;;;;;;;;;5032633;28;20020;-81
2022/09/09 01:15:59;;;;;;;10.30;9.27;;;;;;;;;;5032467;28;20037;-81
2022/09/09 01:18:27;;;;;;;11.25;10.20;;;;;;;;;;5032313;28;20048;-82
2022/09/09 01:21:00;;;;;;;11.18;10.18;;;;;;;;;;5032337;28;20021;-81
2022/09/09 01:23:42;;;;;;;10.65;9.65;;;;;;;;;;5032094;28;20426;-82
2022/09/09 01:26:08;;;;;;;11.27;10.13;;;;;;;;;;5032373;28;20026;-81
2022/09/09 01:28:36;;;;;;;11.07;9.98;;;;;;;;;;5032474;28;20087;-80
2022/09/09 01:31:03;;;;;;;10.60;9.60;;;;;;;;;;5032590;28;20018;-81
2022/09/09 01:33:30;;;;;;;10.57;9.68;;;;;;;;;;5032334;28;20416;-82
2022/09/09 01:35:58;;;;;;;11.43;10.15;;;;;;;;;;5032334;28;20147;-82
2022/09/09 01:38:25;;;;;;;11.43;9.80;;;;;;;;;;5032440;28;20045;-82
2022/09/09 01:40:52;;;;;;;10.70;9.60;;;;;;;;;;5032284;28;20025;-81
2022/09/09 01:43:19;;;;;;;10.43;9.43;;;;;;;;;;5014660;28;20464;-82
2022/09/09 01:45:46;;;;;;;11.35;10.23;;;;;;;;;;5032278;28;20025;-82
2022/09/09 01:48:12;;;;;;;11.70;10.15;;;;;;;;;;5032312;28;20021;-81
2022/09/09 01:50:38;;;;;;;11.52;10.32;;;;;;;;;;5032161;28;20064;-80
2022/09/09 01:53:05;;;;;;;10.45;9.40;;;;;;;;;;5032307;28;20023;-80
2022/09/09 01:55:38;;;;;;;10.52;9.23;;;;;;;;;;5032257;28;20026;-81
2022/09/09 01:58:07;;;;;;;10.93;10.00;;;;;;;;;;5032322;28;20022;-82
2022/09/09 02:00:35;;;;;;;10.95;10.05;;;;;;;;;;5032036;28;20547;-82
2022/09/09 02:03:09;;;;;;;10.65;9.57;;;;;;;;;;5032246;28;20033;-81
2022/09/09 02:05:54;;;;;;;9.52;8.63;;;;;;;;;;5032031;28;20028;-81
2022/09/09 02:08:37;;;;;;;11.82;10.05;;;;;;;;;;5031811;28;20025;-82
2022/09/09 02:11:12;;;;;;;10.68;9.68;;;;;;;;;;5031914;28;20030;-81
2022/09/09 02:13:38;;;;;;;10.88;9.98;;;;;;;;;;5032095;28;20445;-80
2022/09/09 02:16:09;;;;;;;9.68;8.93;;;;;;;;;;5031938;28;20025;-82
2022/09/09 02:19:07;;;;;;;11.50;10.30;;;;;;;;;;5032025;28;20033;-80
2022/09/09 02:21:37;;;;;;;10.05;9.15;;;;;;;;;;4978056;28;20069;-79
2022/09/09 02:24:07;;;;;;;10.70;9.70;;;;;;;;;;5032085;28;20025;-80
2022/09/09 02:26:34;;;;;;;10.38;9.48;;;;;;;;;;5031718;28;20056;-81
2022/09/09 02:29:02;;;;;;;10.10;9.20;;;;;;;;;;5031914;28;20025;-80
2022/09/09 02:31:28;;;;;;;11.73;10.25;;;;;;;;;;5033647;28;20025;-82
2022/09/09 02:33:59;;;;;;;10.45;9.55;;;;;;;;;;5035452;28;20053;-81
2022/09/09 02:36:26;;;;;;;10.63;9.73;;;;;;;;;;5035270;28;20040;-80
2022/09/09 02:38:53;;;;;;;11.20;10.07;;;;;;;;;;5035393;28;20022;-80
2022/09/09 02:41:32;;;;;;;10.88;9.88;;;;;;;;;;5035089;28;20018;-80
2022/09/09 02:43:58;;;;;;;11.10;10.07;;;;;;;;;;5035395;28;20080;-81
2022/09/09 02:46:24;;;;;;;11.40;10.40;;;;;;;;;;5035071;28;20021;-80
2022/09/09 02:49:01;;;;;;;11.32;10.43;;;;;;;;;;5035281;28;20357;-82
2022/09/09 02:51:36;;;;;;;11.77;10.70;;;;;;;;;;5035215;28;20067;-80
2022/09/09 02:54:05;;;;;;;11.13;10.10;;;;;;;;;;5034813;28;20021;-84
2022/09/09 02:56:33;;;;;;;11.40;10.40;;;;;;;;;;5035019;28;20098;-82
2022/09/09 02:58:59;;;;;;;22.95;20.85;;;;;;;;;;5034983;28;20071;-84
2022/09/09 03:01:25;;;;;;;13.98;12.48;;;;;;;;;;5034871;28;20037;-83
2022/09/09 03:03:52;;;;;;;11.73;10.68;;;;;;;;;;5034853;28;20030;-84
2022/09/09 03:06:18;;;;;;;11.45;10.52;;;;;;;;;;5034822;28;20057;-84
2022/09/09 03:08:44;;;;;;;10.65;9.70;;;;;;;;;;5034914;28;20036;-83
2022/09/09 03:11:10;;;;;;;9.82;8.93;;;;;;;;;;5034659;28;20049;-82
2022/09/09 03:13:37;;;;;;;12.82;10.60;;;;;;;;;;5034845;28;20057;-80
2022/09/09 03:16:04;;;;;;;13.10;11.30;;;;;;;;;;5016894;28;20049;-81
2022/09/09 03:18:30;;;;;;;13.68;11.38;;;;;;;;;;5034683;28;20029;-80
2022/09/09 03:20:57;;;;;;;12.63;11.43;;;;;;;;;;5034538;28;20021;-80
2022/09/09 03:23:24;;;;;;;16.55;14.85;;;;;;;;;;5034544;28;20021;-80
2022/09/09 03:25:51;;;;;;;11.13;10.23;;;;;;;;;;5034597;28;20021;-80
2022/09/09 03:28:18;;;;;;;15.18;13.68;;;;;;;;;;5034481;28;20076;-82
2022/09/09 03:30:44;;;;;;;13.55;12.23;;;;;;;;;;5034550;28;20100;-81
2022/09/09 03:33:10;;;;;;;11.48;10.48;;;;;;;;;;5034180;28;20098;-80
2022/09/09 03:35:37;;;;;;;20.05;18.08;;;;;;;;;;5034350;28;20026;-81
2022/09/09 03:38:03;;;;;;;12.23;11.23;;;;;;;;;;5034104;28;20083;-83
2022/09/09 03:40:29;;;;;;;11.98;10.77;;;;;;;;;;5034309;28;20017;-82
2022/09/09 03:42:55;;;;;;;14.75;12.38;;;;;;;;;;5034124;28;20025;-82
2022/09/09 03:45:21;;;;;;;11.65;10.68;;;;;;;;;;5034042;28;20021;-82
2022/09/09 03:47:47;;;;;;;11.52;10.43;;;;;;;;;;5034021;28;20036;-80
2022/09/09 03:50:13;;;;;;;11.55;10.55;;;;;;;;;;5033930;28;20026;-80
2022/09/09 03:52:40;;;;;;;11.80;10.63;;;;;;;;;;5033833;28;20026;-82
2022/09/09 03:55:07;;;;;;;11.80;10.65;;;;;;;;;;5016177;28;20476;-82
2022/09/09 03:57:34;;;;;;;12.65;11.43;;;;;;;;;;5033873;28;20124;-82
2022/09/09 04:00:02;;;;;;;11.50;10.40;;;;;;;;;;5033943;28;20383;-82
2022/09/09 04:02:28;;;;;;;10.98;9.98;;;;;;;;;;5033953;28;20472;-80
2022/09/09 04:04:54;;;;;;;11.70;10.50;;;;;;;;;;5033790;28;20032;-81
2022/09/09 04:07:21;;;;;;;12.50;11.23;;;;;;;;;;5033595;28;20487;-80
2022/09/09 04:09:47;;;;;;;12.15;11.07;;;;;;;;;;5033805;28;20030;-81
2022/09/09 04:12:13;;;;;;;12.18;11.05;;;;;;;;;;5032812;28;20021;-82
2022/09/09 04:14:40;;;;;;;11.50;10.50;;;;;;;;;;5033225;28;20032;-79
2022/09/09 04:17:06;;;;;;;11.13;10.23;;;;;;;;;;5033459;28;20067;-81
2022/09/09 04:19:33;;;;;;;12.20;11.10;;;;;;;;;;5033441;28;20392;-81
2022/09/09 04:21:59;;;;;;;11.63;10.63;;;;;;;;;;5032937;28;20082;-80
2022/09/09 04:24:27;;;;;;;11.18;10.18;;;;;;;;;;5033111;28;20045;-81
2022/09/09 04:26:53;;;;;;;13.93;11.45;;;;;;;;;;5033384;28;20026;-81
2022/09/09 04:29:19;;;;;;;12.40;10.73;;;;;;;;;;5033259;28;20461;-81
2022/09/09 04:31:45;;;;;;;12.68;11.35;;;;;;;;;;5032598;28;20029;-82
2022/09/09 04:34:11;;;;;;;12.52;10.75;;;;;;;;;;5032904;28;20046;-83
2022/09/09 04:36:39;;;;;;;11.90;10.80;;;;;;;;;;5033167;28;20025;-83
2022/09/09 04:39:05;;;;;;;10.45;9.60;;;;;;;;;;5033315;28;20024;-81
2022/09/09 04:41:31;;;;;;;15.88;11.63;;;;;;;;;;5032851;28;20021;-83
2022/09/09 04:43:57;;;;;;;11.93;10.93;;;;;;;;;;5033028;28;20018;-84
2022/09/09 04:46:24;;;;;;;12.43;11.32;;;;;;;;;;5015279;28;20091;-82
2022/09/09 04:48:50;;;;;;;12.98;11.75;;;;;;;;;;5033001;28;20114;-84
2022/09/09 04:51:17;;;;;;;12.60;11.32;;;;;;;;;;5033005;28;20109;-82
2022/09/09 04:53:43;;;;;;;12.40;10.63;;;;;;;;;;5032348;28;20025;-83
2022/09/09 04:56:11;;;;;;;11.60;10.60;;;;;;;;;;5032922;28;20025;-82
2022/09/09 04:58:37;;;;;;;11.77;10.45;;;;;;;;;;5032762;28;20029;-82
2022/09/09 05:01:07;;;;;;;12.35;11.13;;;;;;;;;;5032881;28;20053;-83
2022/09/09 05:03:33;;;;;;;11.63;10.43;;;;;;;;;;5032601;28;20029;-83
2022/09/09 05:06:04;;;;;;;12.82;11.63;;;;;;;;;;5032773;28;20013;-84
2022/09/09 05:08:30;;;;;;;12.65;11.45;;;;;;;;;;5032456;28;20044;-83
2022/09/09 05:10:56;;;;;;;11.30;10.30;;;;;;;;;;5032791;28;20473;-81
2022/09/09 05:13:22;;;;;;;11.15;10.07;;;;;;;;;;5032428;28;20025;-81
2022/09/09 05:15:52;;;;;;;12.30;11.20;;;;;;;;;;5032487;28;20033;-80
2022/09/09 05:18:18;;;;;;;11.68;10.48;;;;;;;;;;5032420;28;20021;-81
2022/09/09 05:20:45;;;;;;;12.45;11.25;;;;;;;;;;5032542;28;20021;-81
2022/09/09 05:23:13;;;;;;;12.05;10.85;;;;;;;;;;5032136;28;20076;-81
2022/09/09 05:28:28;;;;;;;11.50;10.40;;;;;;;;;;5032255;28;20067;-81
2022/09/09 05:31:00;;;;;;;35.63;31.10;;;;;;;;;;5012025;28;20029;-81
2022/09/09 05:33:27;;;;;;;14.13;12.75;;;;;;;;;;5027423;28;20053;-80
2022/09/09 05:36:00;;;;;;;12.90;11.38;;;;;;;;;;5031165;28;20373;-82
2022/09/09 05:38:26;;;;;;;11.45;10.30;;;;;;;;;;5031309;28;20769;-79
2022/09/09 05:41:03;;;;;;;12.75;10.90;;;;;;;;;;5017102;28;20025;-81
2022/09/09 05:43:29;;;;;;;13.10;10.95;;;;;;;;;;5016196;28;20025;-78
2022/09/09 05:46:04;;;;;;;12.48;11.27;;;;;;;;;;5023996;28;20029;-79
2022/09/09 05:48:37;;;;;;;13.85;11.25;;;;;;;;;;5018562;28;20029;-79
2022/09/09 05:51:08;;;;;;;12.57;11.15;;;;;;;;;;5019121;28;20018;-79
2022/09/09 05:53:34;;;;;;;12.50;11.30;;;;;;;;;;5016363;28;20030;-80
2022/09/09 05:56:05;;;;;;;11.77;10.68;;;;;;;;;;5027202;28;20030;-83
2022/09/09 05:58:35;;;;;;;11.45;10.05;;;;;;;;;;5016229;28;20014;-83
2022/09/09 06:01:11;;;;;;;10.05;8.90;;;;;;;;;;5009984;28;20057;-82
2022/09/09 06:03:38;;;;;;;40.05;36.25;;;;;;;;;;5009637;28;20052;-83
2022/09/09 06:06:06;;;;;;;13.90;12.43;;;;;;;;;;5011465;28;20018;-82
2022/09/09 06:08:36;;;;;;;13.38;11.98;;;;;;;;;;5016541;28;20080;-82
2022/09/09 06:11:05;;;;;;;11.35;9.32;;;;;;;;;;5015065;28;20054;-82
2022/09/09 06:13:31;;;;;;;10.07;9.07;;;;;;;;;;5003795;28;20476;-80
2022/09/09 06:15:58;;;;;;;12.43;11.13;;;;;;;;;;5023456;28;20076;-80
2022/09/09 06:18:24;;;;;;;11.43;10.23;;;;;;;;;;5022471;28;20025;-80
2022/09/09 06:20:58;;;;;;;32.05;28.80;;;;;;;;;;5021338;28;20029;-81
2022/09/09 06:23:27;;;;;;;13.35;12.15;;;;;;;;;;5017964;28;20022;-80
2022/09/09 06:26:01;;;;;;;12.65;11.43;;;;;;;;;;5021649;28;20480;-82
2022/09/09 06:28:27;;;;;;;;;;;;;;;;;;5022103;28;20068;-81
2022/09/09 06:31:07;;;;;;;12.30;11.10;;;;;;;;;;5023204;28;20016;-80
2022/09/09 06:33:38;;;;;;;8.52;7.78;;;;;;;;;;5022507;28;20043;-81
2022/09/09 06:36:05;;;;;;;8.40;7.65;;;;;;;;;;5019367;28;20022;-81
2022/09/09 06:38:31;;;;;;;8.73;8.02;;;;;;;;;;5019013;28;20018;-81
2022/09/09 06:41:01;;;;;;;9.43;8.52;;;;;;;;;;5021943;28;20030;-81
2022/09/09 06:43:31;;;;;;;12.13;11.00;;;;;;;;;;5021734;28;20411;-80
2022/09/09 06:45:58;;;;;;;33.53;29.88;;;;;;;;;;5021615;28;20093;-81
2022/09/09 06:48:25;;;;;;;14.48;11.43;;;;;;;;;;5022386;28;20022;-79
2022/09/09 06:50:53;;;;;;;10.18;9.15;;;;;;;;;;5018986;28;20023;-80
2022/09/09 06:53:19;;;;;;;10.60;9.50;;;;;;;;;;5022788;28;20072;-80
2022/09/09 06:55:46;;;;;;;10.63;9.70;;;;;;;;;;5021676;28;20044;-78
2022/09/09 06:58:12;;;;;;;10.90;8.80;;;;;;;;;;5021138;28;20361;-82
2022/09/09 07:00:38;;;;;;;10.07;9.18;;;;;;;;;;5021353;28;20045;-83
2022/09/09 07:03:05;;;;;;;9.00;8.20;;;;;;;;;;5022041;28;20112;-82
2022/09/09 07:05:32;;;;;;;9.27;7.85;;;;;;;;;;5023742;28;20029;-82
2022/09/09 07:08:18;;;;;;;10.38;9.43;;;;;;;;;;5018736;28;20515;-82
2022/09/09 07:10:44;;;;;;;9.23;8.40;;;;;;;;;;5009861;28;20034;-84
2022/09/09 07:13:10;;;;;;;9.55;7.82;;;;;;;;;;5012450;28;20036;-83
2022/09/09 07:15:37;;;;;;;9.40;8.50;;;;;;;;;;5012512;28;20428;-83
2022/09/09 07:18:03;;;;;;;9.73;8.80;;;;;;;;;;5011787;28;20557;-83
2022/09/09 07:20:29;;;;;;;29.95;26.23;;;;;;;;;;5012999;28;20091;-83
2022/09/09 07:22:56;;;;;;;20.95;18.95;;;;;;;;;;5010085;28;20025;-82
2022/09/09 07:25:22;;;;;;;10.98;10.07;;;;;;;;;;5012200;28;20156;-82
2022/09/09 07:27:49;;;;;;;10.40;9.40;;;;;;;;;;5012266;28;20034;-82
2022/09/09 07:30:15;;;;;;;8.15;7.38;;;;;;;;;;5010950;28;20138;-80
2022/09/09 07:32:41;;;;;;;9.80;7.82;;;;;;;;;;5013756;28;20029;-82
2022/09/09 07:35:07;;;;;;;29.40;26.70;;;;;;;;;;5007578;28;20719;-80
2022/09/09 07:37:36;;;;;;;12.15;10.82;;;;;;;;;;4993143;28;20409;-82
2022/09/09 07:40:04;;;;;;;9.70;8.80;;;;;;;;;;4992061;28;20841;-80
2022/09/09 07:42:30;;;;;;;11.70;9.02;;;;;;;;;;5007459;28;20042;-80
2022/09/09 07:44:56;;;;;;;10.75;9.65;;;;;;;;;;5021775;28;20477;-81
2022/09/09 07:47:24;;;;;;;10.40;9.50;;;;;;;;;;5015216;28;20033;-81
2022/09/09 07:49:50;;;;;;;8.35;7.65;;;;;;;;;;5012793;28;20028;-80
2022/09/09 07:52:16;;;;;;;8.48;7.68;;;;;;;;;;5012735;28;20026;-80
2022/09/09 07:54:43;;;;;;;8.75;7.97;;;;;;;;;;5012929;28;20388;-83
2022/09/09 07:57:09;;;;;;;8.20;7.50;;;;;;;;;;5012866;28;20550;-80
2022/09/09 07:59:35;;;;;;;9.70;8.77;;;;;;;;;;5011719;28;20030;-80
2022/09/09 08:02:01;;;;;;;9.23;8.40;;;;;;;;;;5011786;28;20069;-80
2022/09/09 08:04:28;;;;;;;8.52;7.65;;;;;;;;;;5012069;28;20096;-80
2022/09/09 08:06:58;;;;;;;7.68;6.97;;;;;;;;;;5006718;28;20030;-81
2022/09/09 08:09:28;;;;;;;9.25;8.45;;;;;;;;;;5002405;28;20477;-80
2022/09/09 08:11:56;;;;;;;8.63;7.80;;;;;;;;;;5011502;28;20507;-82
2022/09/09 08:14:22;;;;;;;8.35;7.53;;;;;;;;;;5012633;28;20022;-79
2022/09/09 08:16:50;;;;;;;9.40;8.50;;;;;;;;;;5012776;28;20053;-83
2022/09/09 08:19:16;;;;;;;10.15;9.15;;;;;;;;;;5004931;28;20519;-79
2022/09/09 08:21:43;;;;;;;7.28;6.47;;;;;;;;;;5012947;28;20392;-81
2022/09/09 08:24:10;;;;;;;7.93;7.18;;;;;;;;;;5012226;28;20018;-80
2022/09/09 08:26:39;;;;;;;7.45;6.75;;;;;;;;;;5028151;28;20492;-81
2022/09/09 08:29:06;;;;;;;8.15;7.25;;;;;;;;;;5013373;28;20030;-82
2022/09/09 08:31:37;;;;;;;10.07;8.20;;;;;;;;;;5010824;28;20030;-81
2022/09/09 08:34:04;;;;;;;7.57;6.90;;;;;;;;;;5009682;28;20046;-81
2022/09/09 08:36:33;;;;;;;7.65;7.05;;;;;;;;;;5001411;28;20125;-84
2022/09/09 08:38:59;;;;;;;19.45;14.13;;;;;;;;;;5011144;28;20080;-82
2022/09/09 08:41:31;;;;;;;11.65;10.45;;;;;;;;;;5010471;28;20022;-82
2022/09/09 08:44:17;;;;;;;9.48;8.57;;;;;;;;;;5022191;28;20051;-81
2022/09/09 08:46:50;;;;;;;7.20;6.50;;;;;;;;;;5031611;28;20435;-80
2022/09/09 08:49:22;;;;;;;8.48;7.40;;;;;;;;;;5031866;28;20072;-81
2022/09/09 08:51:49;;;;;;;7.75;7.10;;;;;;;;;;5016581;28;20064;-81
2022/09/09 08:54:16;;;;;;;6.97;6.45;;;;;;;;;;5011387;28;20060;-82
2022/09/09 08:56:42;;;;;;;8.63;7.03;;;;;;;;;;5008955;28;20049;-81
2022/09/09 08:59:10;;;;;;;8.25;7.40;;;;;;;;;;5009757;28;20030;-81
2022/09/09 09:01:54;;;;;;;7.57;6.88;;;;;;;;;;5012078;28;20064;-82
2022/09/09 09:04:39;;;;;;;7.47;6.72;;;;;;;;;;5010329;28;20053;-84
2022/09/09 09:07:15;;;;;;;6.75;6.18;;;;;;;;;;5010219;28;20033;-83
2022/09/09 09:09:58;;;;;;;7.93;7.10;;;;;;;;;;5011057;28;20076;-83
2022/09/09 09:12:26;;;;;;;12.52;11.07;;;;;;;;;;5011488;28;20830;-83
2022/09/09 09:14:52;;;;;;;8.75;7.88;;;;;;;;;;5011667;28;20045;-81
2022/09/09 09:17:23;;;;;;;8.02;7.20;;;;;;;;;;5011612;28;20396;-81
2022/09/09 09:19:50;;;;;;;7.70;6.93;;;;;;;;;;5011305;28;20033;-80
2022/09/09 09:22:20;;;;;;;7.90;7.30;;;;;;;;;;5009354;28;20068;-82
2022/09/09 09:24:54;;;;;;;7.32;6.63;;;;;;;;;;5011190;28;20033;-82
2022/09/09 09:27:33;;;;;;;11.88;10.57;;;;;;;;;;5011064;28;20022;-80
2022/09/09 09:30:00;;;;;;;24.63;18.90;;;;;;;;;;5010357;28;20022;-82
2022/09/09 09:32:28;;;;;;;10.75;8.30;;;;;;;;;;5010823;28;20037;-82
2022/09/09 09:35:02;;;;;;;15.32;10.15;;;;;;;;;;5018391;28;20124;-82
2022/09/09 09:37:28;;;;;;;;;;;;;;;;;;5029657;28;20464;-80
2022/09/09 09:39:55;;;;;;;7.57;6.63;;;;;;;;;;5030299;28;19905;-82
2022/09/09 09:42:21;;;;;;;7.45;6.68;;;;;;;;;;5034999;28;20037;-80
2022/09/09 09:44:47;;;;;;;6.88;6.10;;;;;;;;;;5026087;28;20033;-83
2022/09/09 09:47:14;;;;;;;7.38;6.70;;;;;;;;;;5023291;28;20040;-83
2022/09/09 09:49:52;;;;;;;8.18;7.43;;;;;;;;;;5022109;28;20029;-83
2022/09/09 09:52:20;;;;;;;7.25;6.57;;;;;;;;;;5023150;28;20036;-85
2022/09/09 09:54:46;;;;;;;7.53;6.85;;;;;;;;;;5024496;28;20400;-82
2022/09/09 09:57:14;;;;;;;7.38;6.68;;;;;;;;;;5023971;28;20465;-85
2022/09/09 09:59:41;;;;;;;7.65;6.85;;;;;;;;;;5023165;28;20022;-81
2022/09/09 10:02:13;;;;;;;7.20;6.15;;;;;;;;;;5010511;28;20054;-84
2022/09/09 10:04:39;;;;;;;7.68;6.90;;;;;;;;;;5022940;28;20036;-83
2022/09/09 10:07:22;;;;;;;6.55;6.05;;;;;;;;;;5022579;28;20021;-82
2022/09/09 10:09:52;;;;;;;9.05;6.57;;;;;;;;;;5018360;28;20036;-83
2022/09/09 10:12:21;;;;;;;7.35;6.60;;;;;;;;;;5016537;28;20539;-85
2022/09/09 10:15:06;;;;;;;7.43;6.72;;;;;;;;;;5016879;28;20032;-84
2022/09/09 10:17:51;;;;;;;7.78;6.80;;;;;;;;;;5000837;28;20126;-84
2022/09/09 10:20:30;;;;;;;7.47;6.88;;;;;;;;;;5020893;28;20030;-84
2022/09/09 10:23:13;;;;;;;9.68;7.57;;;;;;;;;;5018596;28;20021;-84
2022/09/09 10:25:40;;;;;;;7.53;6.63;;;;;;;;;;5016943;28;20029;-85
2022/09/09 10:28:06;;;;;;;11.30;9.90;;;;;;;;;;5022999;28;20798;-82
2022/09/09 10:30:47;;;;;;;8.00;7.28;;;;;;;;;;5023466;28;20025;-84
2022/09/09 10:33:30;;;;;;;8.43;7.65;;;;;;;;;;5017971;28;20030;-83
2022/09/09 10:36:09;;;;;;;7.03;6.43;;;;;;;;;;5020357;28;20022;-81
2022/09/09 10:38:43;;;;;;;7.60;6.53;;;;;;;;;;5020364;28;20488;-78
2022/09/09 10:41:27;;;;;;;10.43;8.73;;;;;;;;;;5015839;28;20033;-83
2022/09/09 10:44:00;;;;;;;7.68;6.85;;;;;;;;;;5019132;28;20018;-79
2022/09/09 10:46:29;;;;;;;6.78;6.07;;;;;;;;;;5029635;28;20033;-81
2022/09/09 10:49:03;;;;;;;8.48;6.90;;;;;;;;;;5020244;28;20097;-84
2022/09/09 10:51:40;;;;;;;6.65;6.05;;;;;;;;;;5019235;28;20032;-83
2022/09/09 10:54:06;;;;;;;7.72;6.95;;;;;;;;;;5022668;28;20041;-81
2022/09/09 10:56:34;;;;;;;7.75;6.65;;;;;;;;;;5024253;28;20476;-81
2022/09/09 10:59:05;;;;;;;8.65;6.85;;;;;;;;;;5015661;28;20041;-79
2022/09/09 11:01:47;;;;;;;7.97;7.13;;;;;;;;;;5009783;28;20388;-81
2022/09/09 11:04:32;;;;;;;8.25;7.45;;;;;;;;;;5021466;28;20107;-79
2022/09/09 11:07:00;;;;;;;8.93;8.00;;;;;;;;;;5019903;28;20034;-79
2022/09/09 11:09:28;;;;;;;10.05;8.30;;;;;;;;;;5022142;28;20554;-81
2022/09/09 11:11:55;;;;;;;12.60;8.30;;;;;;;;;;5019742;28;20029;-82
2022/09/09 11:14:40;;;;;;;8.20;7.47;;;;;;;;;;5021694;28;20022;-80
2022/09/09 11:17:24;;;;;;;8.32;7.38;;;;;;;;;;5021039;28;20488;-81
2022/09/09 11:19:51;;;;;;;8.05;7.20;;;;;;;;;;5023360;28;20025;-81
2022/09/09 11:22:32;;;;;;;11.68;7.63;;;;;;;;;;5023234;28;20029;-79
2022/09/09 11:25:01;;;;;;;8.73;7.80;;;;;;;;;;5013116;28;20033;-79
2022/09/09 11:27:27;;;;;;;18.50;16.58;;;;;;;;;;5022442;28;20469;-80
2022/09/09 11:29:57;;;;;;;9.13;8.15;;;;;;;;;;5019739;28;20472;-81
2022/09/09 11:32:35;;;;;;;8.50;7.70;;;;;;;;;;5022427;28;20091;-80
2022/09/09 11:35:19;;;;;;;9.73;8.57;;;;;;;;;;5012392;28;20054;-79
2022/09/09 11:38:03;;;;;;;8.75;7.95;;;;;;;;;;5013789;28;20068;-81
2022/09/09 11:40:30;;;;;;;10.40;7.93;;;;;;;;;;5009253;28;20489;-81
2022/09/09 11:43:03;;;;;;;9.07;7.78;;;;;;;;;;5015752;28;20025;-80
2022/09/09 11:45:33;;;;;;;10.40;9.40;;;;;;;;;;5000013;28;20026;-83
2022/09/09 11:48:01;;;;;;;9.70;8.13;;;;;;;;;;4994084;28;20286;-80
2022/09/09 11:50:27;;;;;;;10.90;8.52;;;;;;;;;;5012192;28;20033;-82
2022/09/09 11:53:05;;;;;;;9.95;8.93;;;;;;;;;;5013151;28;20022;-82
2022/09/09 11:55:33;;;;;;;9.68;8.77;;;;;;;;;;5011629;28;20076;-83
2022/09/09 11:57:59;;;;;;;9.93;9.02;;;;;;;;;;5003442;28;20030;-82
2022/09/09 12:00:32;;;;;;;11.73;10.63;;;;;;;;;;5011327;28;20033;-81
2022/09/09 12:02:59;;;;;;;10.38;8.43;;;;;;;;;;5014616;28;20038;-81
2022/09/09 12:05:36;;;;;;;11.35;9.93;;;;;;;;;;5012645;28;20022;-82
2022/09/09 12:08:03;;;;;;;9.60;8.65;;;;;;;;;;5007582;28;20422;-82
2022/09/09 12:10:38;;;;;;;11.02;10.02;;;;;;;;;;5000661;28;20022;-81
2022/09/09 12:13:17;;;;;;;9.80;8.95;;;;;;;;;;5012828;28;20084;-79
2022/09/09 12:15:51;;;;;;;9.13;8.40;;;;;;;;;;5013507;28;20040;-79
2022/09/09 12:18:36;;;;;;;10.25;9.27;;;;;;;;;;5011754;28;20029;-79
2022/09/09 12:21:15;;;;;;;12.82;11.52;;;;;;;;;;5005462;28;20034;-82
2022/09/09 12:24:00;;;;;;;12.35;11.18;;;;;;;;;;5015684;28;20029;-83
2022/09/09 12:26:31;;;;;;;13.15;11.85;;;;;;;;;;5033341;28;20030;-83
2022/09/09 12:28:57;;;;;;;13.95;12.05;;;;;;;;;;5028227;28;20104;-80
2022/09/09 12:31:26;;;;;;;12.55;11.32;;;;;;;;;;5022302;28;20018;-82
2022/09/09 12:33:52;;;;;;;11.73;10.80;;;;;;;;;;5019717;28;20049;-81
2022/09/09 12:36:19;;;;;;;13.82;12.40;;;;;;;;;;5022910;28;20021;-81
2022/09/09 12:38:45;;;;;;;12.50;11.30;;;;;;;;;;5021749;28;20511;-81
2022/09/09 12:41:30;;;;;;;12.63;11.50;;;;;;;;;;5016116;28;20562;-81
2022/09/09 12:44:15;;;;;;;13.32;12.00;;;;;;;;;;5007931;28;20023;-82
2022/09/09 12:46:45;;;;;;;15.73;11.00;;;;;;;;;;5004194;28;20033;-82
2022/09/09 12:49:41;;;;;;;12.13;11.02;;;;;;;;;;5016195;28;20030;-83
2022/09/09 12:52:26;;;;;;;12.85;11.75;;;;;;;;;;4993605;28;20038;-83
2022/09/09 12:54:53;;;;;;;27.23;24.35;;;;;;;;;;5011603;28;20583;-81
2022/09/09 12:57:20;;;;;;;13.25;11.38;;;;;;;;;;5011850;28;20069;-82
2022/09/09 13:00:03;;;;;;;12.52;11.38;;;;;;;;;;5018478;28;20089;-82
2022/09/09 13:02:30;;;;;;;12.43;11.20;;;;;;;;;;4993100;28;20117;-82
2022/09/09 13:05:06;;;;;;;11.93;10.82;;;;;;;;;;4993437;28;20370;-81
2022/09/09 13:07:32;;;;;;;13.40;12.20;;;;;;;;;;5018776;28;20038;-81
2022/09/09 13:09:59;;;;;;;11.68;10.57;;;;;;;;;;5023722;28;20396;-83
2022/09/09 13:12:25;;;;;;;11.65;10.45;;;;;;;;;;5020562;28;20431;-82
2022/09/09 13:14:52;;;;;;;12.18;10.95;;;;;;;;;;5012403;28;20437;-84
2022/09/09 13:17:23;;;;;;;11.95;10.63;;;;;;;;;;5012236;28;20034;-83
2022/09/09 13:19:52;;;;;;;11.35;10.23;;;;;;;;;;5011211;28;20108;-82
2022/09/09 13:22:23;;;;;;;11.27;10.15;;;;;;;;;;5011189;28;20038;-82
2022/09/09 13:24:59;;;;;;;10.52;9.73;;;;;;;;;;5011404;28;20022;-82
2022/09/09 13:27:31;;;;;;;11.88;10.63;;;;;;;;;;5011470;28;20099;-82
2022/09/09 13:29:57;;;;;;;12.27;11.05;;;;;;;;;;5011695;28;20177;-82
2022/09/09 13:32:24;;;;;;;11.27;10.20;;;;;;;;;;5011725;28;20025;-81
2022/09/09 13:35:01;;;;;;;11.27;10.18;;;;;;;;;;5011230;28;20088;-83
2022/09/09 13:37:46;;;;;;;12.85;11.10;;;;;;;;;;5012419;28;20481;-83
2022/09/09 13:40:19;;;;;;;12.32;10.55;;;;;;;;;;5012471;28;20105;-82
2022/09/09 13:42:45;;;;;;;10.07;9.07;;;;;;;;;;5012353;28;20114;-82
2022/09/09 13:45:30;;;;;;;12.52;10.65;;;;;;;;;;5008672;28;20026;-83
2022/09/09 13:47:56;;;;;;;11.65;10.40;;;;;;;;;;4992787;28;20019;-81
2022/09/09 13:50:27;;;;;;;11.77;9.90;;;;;;;;;;4992803;28;20474;-82
2022/09/09 13:53:00;;;;;;;20.85;18.88;;;;;;;;;;5002622;28;20508;-84
2022/09/09 13:55:27;;;;;;;11.43;10.27;;;;;;;;;;5010819;28;20038;-83
2022/09/09 13:58:00;;;;;;;10.15;9.23;;;;;;;;;;5010332;28;20084;-84
2022/09/09 14:00:26;;;;;;;11.32;10.32;;;;;;;;;;5007715;28;20036;-84
2022/09/09 14:02:54;;;;;;;12.20;10.60;;;;;;;;;;5010800;28;21254;-84
2022/09/09 14:05:22;;;;;;;10.27;9.18;;;;;;;;;;5009685;28;20069;-83
2022/09/09 14:07:48;;;;;;;11.88;10.68;;;;;;;;;;5011431;28;20030;-82
2022/09/09 14:10:14;;;;;;;10.32;9.10;;;;;;;;;;5011490;28;20022;-83
2022/09/09 14:12:41;;;;;;;10.80;9.80;;;;;;;;;;5012106;28;20026;-84
2022/09/09 14:15:07;;;;;;;10.18;9.10;;;;;;;;;;5012460;28;20563;-86
2022/09/09 14:17:37;;;;;;;14.13;12.60;;;;;;;;;;5011693;28;20034;-83
2022/09/09 14:20:09;;;;;;;12.02;10.93;;;;;;;;;;5013379;28;20025;-83
2022/09/09 14:22:35;;;;;;;41.72;35.85;;;;;;;;;;5007771;28;20070;-82
2022/09/09 14:25:01;;;;;;;9.90;9.00;;;;;;;;;;5012634;28;20057;-81
2022/09/09 14:27:28;;;;;;;10.40;9.40;;;;;;;;;;5016704;28;20255;-80
2022/09/09 14:29:54;;;;;;;9.73;8.77;;;;;;;;;;5025345;28;20026;-80
2022/09/09 14:32:21;;;;;;;10.18;9.27;;;;;;;;;;5018171;28;20492;-82
2022/09/09 14:34:49;;;;;;;18.48;16.52;;;;;;;;;;5015677;28;20042;-82
2022/09/09 14:37:16;;;;;;;10.77;9.68;;;;;;;;;;5018242;28;20022;-83
2022/09/09 14:39:43;;;;;;;10.55;9.65;;;;;;;;;;5024658;28;20050;-82
2022/09/09 14:42:10;;;;;;;10.20;9.30;;;;;;;;;;5015084;28;20034;-82
2022/09/09 14:44:38;;;;;;;11.52;8.95;;;;;;;;;;5014859;28;20026;-82
2022/09/09 14:47:04;;;;;;;23.30;21.23;;;;;;;;;;5015024;28;20014;-81
2022/09/09 14:49:31;;;;;;;11.93;10.68;;;;;;;;;;5014633;28;20018;-81